sensor_id;sensor_type;location;lat;lon;timestamp;temperature;humidity
18794;DHT22;29610;49.022;12.114;2022-11-12T00:01:49;5.50;99.90
18794;DHT22;29610;49.022;12.114;2022-11-12T00:04:37;5.00;99.90
18794;DHT22;29610;49.022;12.114;2022-11-12T00:07:24;5.00;99.90
18794;DHT22;29610;49.022;12.114;2022-11-12T00:10:11;5.70;99.90
18794;DHT22;29610;49.022;12.114;2022-11-12T00:12:58;5.80;99.90
18794;DHT22;29610;49.022;12.114;2022-11-12T00:15:47;5.20;99.90
18794;DHT22;29610;49.022;12.114;2022-11-12T00:18:34;5.30;99.90
18794;DHT22;29610;49.022;12.114;2022-11-12T00:21:21;5.30;99.90
18794;DHT22;29610;49.022;12.114;2022-11-12T00:24:08;5.20;99.90
18794;DHT22;29610;49.022;12.114;2022-11-12T00:26:55;5.20;99.90
18794;DHT22;29610;49.022;12.114;2022-11-12T00:29:42;5.30;99.90
18794;DHT22;29610;49.022;12.114;2022-11-12T00:32:33;5.30;99.90
18794;DHT22;29610;49.022;12.114;2022-11-12T00:35:21;5.30;99.90
18794;DHT22;29610;49.022;12.114;2022-11-12T00:38:08;6.00;99.90
18794;DHT22;29610;49.022;12.114;2022-11-12T00:40:58;5.40;99.90
18794;DHT22;29610;49.022;12.114;2022-11-12T00:43:45;5.60;99.90
18794;DHT22;29610;49.022;12.114;2022-11-12T00:46:32;5.40;99.90
18794;DHT22;29610;49.022;12.114;2022-11-12T00:49:20;5.90;99.90
18794;DHT22;29610;49.022;12.114;2022-11-12T00:52:08;6.20;99.90
18794;DHT22;29610;49.022;12.114;2022-11-12T00:54:55;5.30;99.90
18794;DHT22;29610;49.022;12.114;2022-11-12T00:57:42;5.20;99.90
18794;DHT22;29610;49.022;12.114;2022-11-12T01:00:29;5.10;99.90
18794;DHT22;29610;49.022;12.114;2022-11-12T01:03:16;5.80;99.90
18794;DHT22;29610;49.022;12.114;2022-11-12T01:06:07;5.00;99.90
18794;DHT22;29610;49.022;12.114;2022-11-12T01:08:55;5.00;99.90
18794;DHT22;29610;49.022;12.114;2022-11-12T01:11:43;4.90;99.90
18794;DHT22;29610;49.022;12.114;2022-11-12T01:14:30;4.90;99.90
18794;DHT22;29610;49.022;12.114;2022-11-12T01:17:16;5.20;99.90
18794;DHT22;29610;49.022;12.114;2022-11-12T01:20:05;4.90;99.90
18794;DHT22;29610;49.022;12.114;2022-11-12T01:22:54;4.80;99.90
18794;DHT22;29610;49.022;12.114;2022-11-12T01:25:41;4.70;99.90
18794;DHT22;29610;49.022;12.114;2022-11-12T01:28:28;4.70;99.90
18794;DHT22;29610;49.022;12.114;2022-11-12T01:31:17;5.00;99.90
18794;DHT22;29610;49.022;12.114;2022-11-12T01:34:07;4.60;99.90
18794;DHT22;29610;49.022;12.114;2022-11-12T01:36:55;4.70;99.90
18794;DHT22;29610;49.022;12.114;2022-11-12T01:39:43;4.70;99.90
18794;DHT22;29610;49.022;12.114;2022-11-12T01:42:31;5.00;99.90
18794;DHT22;29610;49.022;12.114;2022-11-12T01:45:19;4.70;99.90
18794;DHT22;29610;49.022;12.114;2022-11-12T01:48:11;5.10;99.90
18794;DHT22;29610;49.022;12.114;2022-11-12T01:51:12;4.60;99.90
18794;DHT22;29610;49.022;12.114;2022-11-12T01:54:05;4.60;99.90
18794;DHT22;29610;49.022;12.114;2022-11-12T01:57:01;4.50;99.90
18794;DHT22;29610;49.022;12.114;2022-11-12T01:59:53;5.50;99.90
18794;DHT22;29610;49.022;12.114;2022-11-12T02:02:52;4.40;99.90
18794;DHT22;29610;49.022;12.114;2022-11-12T02:05:41;4.50;99.90
18794;DHT22;29610;49.022;12.114;2022-11-12T02:08:30;5.20;99.90
18794;DHT22;29610;49.022;12.114;2022-11-12T02:11:20;4.50;99.90
18794;DHT22;29610;49.022;12.114;2022-11-12T02:14:08;4.50;99.90
18794;DHT22;29610;49.022;12.114;2022-11-12T02:16:55;4.50;99.90
18794;DHT22;29610;49.022;12.114;2022-11-12T02:19:42;4.40;99.90
18794;DHT22;29610;49.022;12.114;2022-11-12T02:22:30;4.30;99.90
18794;DHT22;29610;49.022;12.114;2022-11-12T02:25:20;4.30;99.90
18794;DHT22;29610;49.022;12.114;2022-11-12T02:28:09;4.30;99.90
18794;DHT22;29610;49.022;12.114;2022-11-12T02:30:57;4.40;99.90
18794;DHT22;29610;49.022;12.114;2022-11-12T02:33:44;4.40;99.90
18794;DHT22;29610;49.022;12.114;2022-11-12T02:36:31;4.40;99.90
18794;DHT22;29610;49.022;12.114;2022-11-12T02:39:20;4.50;99.90
18794;DHT22;29610;49.022;12.114;2022-11-12T02:42:07;4.70;99.90
18794;DHT22;29610;49.022;12.114;2022-11-12T02:44:54;4.30;99.90
18794;DHT22;29610;49.022;12.114;2022-11-12T02:47:41;4.20;99.90
18794;DHT22;29610;49.022;12.114;2022-11-12T02:50:28;4.10;99.90
18794;DHT22;29610;49.022;12.114;2022-11-12T02:53:16;4.10;99.90
18794;DHT22;29610;49.022;12.114;2022-11-12T02:56:04;4.10;99.90
18794;DHT22;29610;49.022;12.114;2022-11-12T02:58:52;4.00;99.90
18794;DHT22;29610;49.022;12.114;2022-11-12T03:01:39;4.00;99.90
18794;DHT22;29610;49.022;12.114;2022-11-12T03:04:26;4.00;99.90
18794;DHT22;29610;49.022;12.114;2022-11-12T03:07:13;4.10;99.90
18794;DHT22;29610;49.022;12.114;2022-11-12T03:10:01;3.90;99.90
18794;DHT22;29610;49.022;12.114;2022-11-12T03:12:50;4.00;99.90
18794;DHT22;29610;49.022;12.114;2022-11-12T03:15:37;3.90;99.90
18794;DHT22;29610;49.022;12.114;2022-11-12T03:18:24;3.80;99.90
18794;DHT22;29610;49.022;12.114;2022-11-12T03:21:12;3.80;99.90
18794;DHT22;29610;49.022;12.114;2022-11-12T03:24:00;4.10;99.90
18794;DHT22;29610;49.022;12.114;2022-11-12T03:26:47;3.90;99.90
18794;DHT22;29610;49.022;12.114;2022-11-12T03:29:36;3.90;99.90
18794;DHT22;29610;49.022;12.114;2022-11-12T03:32:23;4.70;99.90
18794;DHT22;29610;49.022;12.114;2022-11-12T03:35:10;4.00;99.90
18794;DHT22;29610;49.022;12.114;2022-11-12T03:37:57;4.70;99.90
18794;DHT22;29610;49.022;12.114;2022-11-12T03:40:44;4.70;99.90
18794;DHT22;29610;49.022;12.114;2022-11-12T03:43:32;4.10;99.90
18794;DHT22;29610;49.022;12.114;2022-11-12T03:46:20;4.10;99.90
18794;DHT22;29610;49.022;12.114;2022-11-12T03:49:08;4.00;99.90
18794;DHT22;29610;49.022;12.114;2022-11-12T03:51:55;4.10;99.90
18794;DHT22;29610;49.022;12.114;2022-11-12T03:54:42;4.90;99.90
18794;DHT22;29610;49.022;12.114;2022-11-12T03:57:29;4.10;99.90
18794;DHT22;29610;49.022;12.114;2022-11-12T04:00:17;4.10;99.90
18794;DHT22;29610;49.022;12.114;2022-11-12T04:03:06;4.00;99.90
18794;DHT22;29610;49.022;12.114;2022-11-12T04:05:53;4.30;99.90
18794;DHT22;29610;49.022;12.114;2022-11-12T04:08:58;3.90;99.90
18794;DHT22;29610;49.022;12.114;2022-11-12T04:11:45;3.90;99.90
18794;DHT22;29610;49.022;12.114;2022-11-12T04:14:32;3.80;99.90
18794;DHT22;29610;49.022;12.114;2022-11-12T04:17:20;3.80;99.90
18794;DHT22;29610;49.022;12.114;2022-11-12T04:20:26;3.80;99.90
18794;DHT22;29610;49.022;12.114;2022-11-12T04:23:53;3.70;99.90
18794;DHT22;29610;49.022;12.114;2022-11-12T04:26:40;3.70;99.90
18794;DHT22;29610;49.022;12.114;2022-11-12T04:29:29;3.80;99.90
18794;DHT22;29610;49.022;12.114;2022-11-12T04:32:35;3.70;99.90
18794;DHT22;29610;49.022;12.114;2022-11-12T04:35:26;3.80;99.90
18794;DHT22;29610;49.022;12.114;2022-11-12T04:38:14;3.80;99.90
18794;DHT22;29610;49.022;12.114;2022-11-12T04:41:00;3.70;99.90
18794;DHT22;29610;49.022;12.114;2022-11-12T04:44:10;3.60;99.90
18794;DHT22;29610;49.022;12.114;2022-11-12T04:47:15;3.60;99.90
18794;DHT22;29610;49.022;12.114;2022-11-12T04:50:08;3.60;99.90
18794;DHT22;29610;49.022;12.114;2022-11-12T04:53:04;3.60;99.90
18794;DHT22;29610;49.022;12.114;2022-11-12T04:55:51;3.60;99.90
18794;DHT22;29610;49.022;12.114;2022-11-12T04:58:39;3.60;99.90
18794;DHT22;29610;49.022;12.114;2022-11-12T05:01:26;3.50;99.90
18794;DHT22;29610;49.022;12.114;2022-11-12T05:04:14;3.50;99.90
18794;DHT22;29610;49.022;12.114;2022-11-12T05:07:01;3.90;99.90
18794;DHT22;29610;49.022;12.114;2022-11-12T05:09:49;3.60;99.90
18794;DHT22;29610;49.022;12.114;2022-11-12T05:12:37;3.50;99.90
18794;DHT22;29610;49.022;12.114;2022-11-12T05:15:23;4.30;99.90
18794;DHT22;29610;49.022;12.114;2022-11-12T05:18:11;3.50;99.90
18794;DHT22;29610;49.022;12.114;2022-11-12T05:20:58;3.50;99.90
18794;DHT22;29610;49.022;12.114;2022-11-12T05:24:06;3.50;99.90
18794;DHT22;29610;49.022;12.114;2022-11-12T05:27:16;3.40;99.90
18794;DHT22;29610;49.022;12.114;2022-11-12T05:30:05;3.50;99.90
18794;DHT22;29610;49.022;12.114;2022-11-12T05:32:53;3.40;99.90
18794;DHT22;29610;49.022;12.114;2022-11-12T05:35:40;3.50;99.90
18794;DHT22;29610;49.022;12.114;2022-11-12T05:38:27;3.90;99.90
18794;DHT22;29610;49.022;12.114;2022-11-12T05:41:15;3.90;99.90
18794;DHT22;29610;49.022;12.114;2022-11-12T05:44:06;3.40;99.90
18794;DHT22;29610;49.022;12.114;2022-11-12T05:46:53;3.40;99.90
18794;DHT22;29610;49.022;12.114;2022-11-12T05:49:40;3.30;99.90
18794;DHT22;29610;49.022;12.114;2022-11-12T05:52:27;3.30;99.90
18794;DHT22;29610;49.022;12.114;2022-11-12T05:55:14;3.30;99.90
18794;DHT22;29610;49.022;12.114;2022-11-12T05:58:04;3.20;99.90
18794;DHT22;29610;49.022;12.114;2022-11-12T06:00:52;3.40;99.90
18794;DHT22;29610;49.022;12.114;2022-11-12T06:03:39;3.40;99.90
18794;DHT22;29610;49.022;12.114;2022-11-12T06:06:26;3.40;99.90
18794;DHT22;29610;49.022;12.114;2022-11-12T06:09:13;3.40;99.90
18794;DHT22;29610;49.022;12.114;2022-11-12T06:12:01;4.20;99.90
18794;DHT22;29610;49.022;12.114;2022-11-12T06:14:50;3.80;99.90
18794;DHT22;29610;49.022;12.114;2022-11-12T06:17:39;3.50;99.90
18794;DHT22;29610;49.022;12.114;2022-11-12T06:20:27;3.40;99.90
18794;DHT22;29610;49.022;12.114;2022-11-12T06:23:15;3.40;99.90
18794;DHT22;29610;49.022;12.114;2022-11-12T06:26:03;3.50;99.90
18794;DHT22;29610;49.022;12.114;2022-11-12T06:28:50;3.50;99.90
18794;DHT22;29610;49.022;12.114;2022-11-12T06:31:38;3.50;99.90
18794;DHT22;29610;49.022;12.114;2022-11-12T06:34:26;3.50;99.90
18794;DHT22;29610;49.022;12.114;2022-11-12T06:37:14;3.60;99.90
18794;DHT22;29610;49.022;12.114;2022-11-12T06:40:01;3.60;99.90
18794;DHT22;29610;49.022;12.114;2022-11-12T06:42:55;3.60;99.90
18794;DHT22;29610;49.022;12.114;2022-11-12T06:45:43;3.60;99.90
18794;DHT22;29610;49.022;12.114;2022-11-12T06:48:30;3.60;99.90
18794;DHT22;29610;49.022;12.114;2022-11-12T06:51:19;3.50;99.90
18794;DHT22;29610;49.022;12.114;2022-11-12T06:54:07;3.60;99.90
18794;DHT22;29610;49.022;12.114;2022-11-12T06:56:54;3.50;99.90
18794;DHT22;29610;49.022;12.114;2022-11-12T06:59:42;3.70;99.90
18794;DHT22;29610;49.022;12.114;2022-11-12T07:02:29;3.70;99.90
18794;DHT22;29610;49.022;12.114;2022-11-12T07:05:16;3.70;99.90
18794;DHT22;29610;49.022;12.114;2022-11-12T07:08:05;3.60;99.90
18794;DHT22;29610;49.022;12.114;2022-11-12T07:10:54;3.70;99.90
18794;DHT22;29610;49.022;12.114;2022-11-12T07:13:43;3.80;99.90
18794;DHT22;29610;49.022;12.114;2022-11-12T07:16:31;3.80;99.90
18794;DHT22;29610;49.022;12.114;2022-11-12T07:19:18;3.90;99.90
18794;DHT22;29610;49.022;12.114;2022-11-12T07:22:06;3.90;99.90
18794;DHT22;29610;49.022;12.114;2022-11-12T07:24:54;3.90;99.90
18794;DHT22;29610;49.022;12.114;2022-11-12T07:27:41;3.90;99.90
18794;DHT22;29610;49.022;12.114;2022-11-12T07:30:29;3.90;99.90
18794;DHT22;29610;49.022;12.114;2022-11-12T07:33:16;3.80;99.90
18794;DHT22;29610;49.022;12.114;2022-11-12T07:36:05;3.80;99.90
18794;DHT22;29610;49.022;12.114;2022-11-12T07:38:54;3.70;99.90
18794;DHT22;29610;49.022;12.114;2022-11-12T07:41:43;3.80;99.90
18794;DHT22;29610;49.022;12.114;2022-11-12T07:44:30;3.70;99.90
18794;DHT22;29610;49.022;12.114;2022-11-12T07:47:17;3.80;99.90
18794;DHT22;29610;49.022;12.114;2022-11-12T07:50:05;3.80;99.90
18794;DHT22;29610;49.022;12.114;2022-11-12T07:52:53;3.80;99.90
18794;DHT22;29610;49.022;12.114;2022-11-12T07:55:52;3.90;99.90
18794;DHT22;29610;49.022;12.114;2022-11-12T07:58:42;3.90;99.90
18794;DHT22;29610;49.022;12.114;2022-11-12T08:01:32;4.00;99.90
18794;DHT22;29610;49.022;12.114;2022-11-12T08:04:21;4.10;99.90
18794;DHT22;29610;49.022;12.114;2022-11-12T08:07:08;4.10;99.90
18794;DHT22;29610;49.022;12.114;2022-11-12T08:09:56;4.20;99.90
18794;DHT22;29610;49.022;12.114;2022-11-12T08:12:43;4.20;99.90
18794;DHT22;29610;49.022;12.114;2022-11-12T08:15:32;4.20;99.90
18794;DHT22;29610;49.022;12.114;2022-11-12T08:18:19;4.10;99.90
18794;DHT22;29610;49.022;12.114;2022-11-12T08:21:09;4.00;99.90
18794;DHT22;29610;49.022;12.114;2022-11-12T08:23:59;4.00;99.90
18794;DHT22;29610;49.022;12.114;2022-11-12T08:26:47;4.10;99.90
18794;DHT22;29610;49.022;12.114;2022-11-12T08:29:34;4.10;99.90
18794;DHT22;29610;49.022;12.114;2022-11-12T08:32:23;4.10;99.90
18794;DHT22;29610;49.022;12.114;2022-11-12T08:35:10;4.00;99.90
18794;DHT22;29610;49.022;12.114;2022-11-12T08:37:58;4.10;99.90
18794;DHT22;29610;49.022;12.114;2022-11-12T08:40:47;4.30;99.90
18794;DHT22;29610;49.022;12.114;2022-11-12T08:43:35;4.20;99.90
18794;DHT22;29610;49.022;12.114;2022-11-12T08:46:23;4.30;99.90
18794;DHT22;29610;49.022;12.114;2022-11-12T08:49:12;4.40;99.90
18794;DHT22;29610;49.022;12.114;2022-11-12T08:51:59;4.50;99.90
18794;DHT22;29610;49.022;12.114;2022-11-12T08:54:47;4.70;99.90
18794;DHT22;29610;49.022;12.114;2022-11-12T08:57:39;4.70;99.90
18794;DHT22;29610;49.022;12.114;2022-11-12T09:00:27;4.80;99.90
18794;DHT22;29610;49.022;12.114;2022-11-12T09:03:17;4.80;99.90
18794;DHT22;29610;49.022;12.114;2022-11-12T09:06:07;4.80;99.90
18794;DHT22;29610;49.022;12.114;2022-11-12T09:08:54;5.10;99.90
18794;DHT22;29610;49.022;12.114;2022-11-12T09:11:42;5.00;99.90
18794;DHT22;29610;49.022;12.114;2022-11-12T09:14:29;5.10;99.90
18794;DHT22;29610;49.022;12.114;2022-11-12T09:17:17;5.00;99.90
18794;DHT22;29610;49.022;12.114;2022-11-12T09:20:05;5.00;99.90
18794;DHT22;29610;49.022;12.114;2022-11-12T09:22:57;4.90;99.90
18794;DHT22;29610;49.022;12.114;2022-11-12T09:25:45;4.90;99.90
18794;DHT22;29610;49.022;12.114;2022-11-12T09:28:33;5.00;99.90
18794;DHT22;29610;49.022;12.114;2022-11-12T09:31:20;5.20;99.90
18794;DHT22;29610;49.022;12.114;2022-11-12T09:34:10;5.30;99.90
18794;DHT22;29610;49.022;12.114;2022-11-12T09:36:57;5.50;99.90
18794;DHT22;29610;49.022;12.114;2022-11-12T09:39:46;5.80;99.90
18794;DHT22;29610;49.022;12.114;2022-11-12T09:42:35;6.00;99.90
18794;DHT22;29610;49.022;12.114;2022-11-12T09:45:27;6.10;99.90
18794;DHT22;29610;49.022;12.114;2022-11-12T09:48:20;6.20;99.90
18794;DHT22;29610;49.022;12.114;2022-11-12T09:51:18;6.40;99.90
18794;DHT22;29610;49.022;12.114;2022-11-12T09:54:25;6.60;99.90
18794;DHT22;29610;49.022;12.114;2022-11-12T09:57:15;6.80;99.90
18794;DHT22;29610;49.022;12.114;2022-11-12T10:00:15;6.90;99.90
18794;DHT22;29610;49.022;12.114;2022-11-12T10:03:07;6.90;99.90
18794;DHT22;29610;49.022;12.114;2022-11-12T10:06:13;7.00;99.90
18794;DHT22;29610;49.022;12.114;2022-11-12T10:09:08;6.90;99.90
18794;DHT22;29610;49.022;12.114;2022-11-12T10:12:04;7.00;99.90
18794;DHT22;29610;49.022;12.114;2022-11-12T10:15:44;7.10;99.90
18794;DHT22;29610;49.022;12.114;2022-11-12T10:19:17;7.50;99.90
18794;DHT22;29610;49.022;12.114;2022-11-12T10:22:24;7.80;99.90
18794;DHT22;29610;49.022;12.114;2022-11-12T10:25:24;8.00;99.90
18794;DHT22;29610;49.022;12.114;2022-11-12T10:28:21;8.20;99.90
18794;DHT22;29610;49.022;12.114;2022-11-12T10:31:17;8.40;99.90
18794;DHT22;29610;49.022;12.114;2022-11-12T10:34:17;8.60;99.90
18794;DHT22;29610;49.022;12.114;2022-11-12T10:37:13;8.60;99.90
18794;DHT22;29610;49.022;12.114;2022-11-12T10:40:26;8.40;99.90
18794;DHT22;29610;49.022;12.114;2022-11-12T10:43:21;8.30;99.90
18794;DHT22;29610;49.022;12.114;2022-11-12T10:46:19;8.20;99.90
18794;DHT22;29610;49.022;12.114;2022-11-12T10:49:22;8.20;99.90
18794;DHT22;29610;49.022;12.114;2022-11-12T10:52:20;8.20;99.90
18794;DHT22;29610;49.022;12.114;2022-11-12T10:55:15;8.50;99.90
18794;DHT22;29610;49.022;12.114;2022-11-12T10:58:16;8.30;99.90
18794;DHT22;29610;49.022;12.114;2022-11-12T11:01:12;8.50;99.90
18794;DHT22;29610;49.022;12.114;2022-11-12T11:04:03;8.30;99.90
18794;DHT22;29610;49.022;12.114;2022-11-12T11:07:04;8.40;99.90
18794;DHT22;29610;49.022;12.114;2022-11-12T11:09:54;8.60;99.90
18794;DHT22;29610;49.022;12.114;2022-11-12T11:12:42;8.60;99.90
18794;DHT22;29610;49.022;12.114;2022-11-12T11:15:29;9.00;99.90
18794;DHT22;29610;49.022;12.114;2022-11-12T11:18:17;9.10;99.90
18794;DHT22;29610;49.022;12.114;2022-11-12T11:21:16;9.30;99.90
18794;DHT22;29610;49.022;12.114;2022-11-12T11:24:21;9.10;99.90
18794;DHT22;29610;49.022;12.114;2022-11-12T11:27:28;9.00;99.90
18794;DHT22;29610;49.022;12.114;2022-11-12T11:30:22;9.20;99.90
18794;DHT22;29610;49.022;12.114;2022-11-12T11:33:25;9.40;99.90
18794;DHT22;29610;49.022;12.114;2022-11-12T11:36:27;9.60;99.90
18794;DHT22;29610;49.022;12.114;2022-11-12T11:39:30;9.40;99.90
18794;DHT22;29610;49.022;12.114;2022-11-12T11:42:43;9.60;99.90
18794;DHT22;29610;49.022;12.114;2022-11-12T11:46:01;9.60;99.90
18794;DHT22;29610;49.022;12.114;2022-11-12T11:49:05;9.80;99.90
18794;DHT22;29610;49.022;12.114;2022-11-12T11:52:21;9.70;99.90
18794;DHT22;29610;49.022;12.114;2022-11-12T11:55:46;9.60;99.90
18794;DHT22;29610;49.022;12.114;2022-11-12T11:58:58;9.30;99.90
18794;DHT22;29610;49.022;12.114;2022-11-12T12:02:13;9.30;99.90
18794;DHT22;29610;49.022;12.114;2022-11-12T12:05:22;9.20;99.90
18794;DHT22;29610;49.022;12.114;2022-11-12T12:08:25;9.20;99.90
18794;DHT22;29610;49.022;12.114;2022-11-12T12:11:28;9.20;99.90
18794;DHT22;29610;49.022;12.114;2022-11-12T12:14:30;9.00;99.90
18794;DHT22;29610;49.022;12.114;2022-11-12T12:17:37;8.90;99.90
18794;DHT22;29610;49.022;12.114;2022-11-12T12:20:36;8.80;99.90
18794;DHT22;29610;49.022;12.114;2022-11-12T12:23:33;8.60;99.90
18794;DHT22;29610;49.022;12.114;2022-11-12T12:26:26;8.70;99.90
18794;DHT22;29610;49.022;12.114;2022-11-12T12:29:20;8.60;99.90
18794;DHT22;29610;49.022;12.114;2022-11-12T12:32:17;8.50;99.90
18794;DHT22;29610;49.022;12.114;2022-11-12T12:35:15;8.40;99.90
18794;DHT22;29610;49.022;12.114;2022-11-12T12:38:12;8.40;99.90
18794;DHT22;29610;49.022;12.114;2022-11-12T12:41:12;8.10;99.90
18794;DHT22;29610;49.022;12.114;2022-11-12T12:44:07;8.10;99.90
18794;DHT22;29610;49.022;12.114;2022-11-12T12:46:58;8.00;99.90
18794;DHT22;29610;49.022;12.114;2022-11-12T12:49:48;8.10;99.90
18794;DHT22;29610;49.022;12.114;2022-11-12T12:52:59;8.10;99.90
18794;DHT22;29610;49.022;12.114;2022-11-12T12:55:52;8.00;99.90
18794;DHT22;29610;49.022;12.114;2022-11-12T12:58:43;8.10;99.90
18794;DHT22;29610;49.022;12.114;2022-11-12T13:01:35;8.00;99.90
18794;DHT22;29610;49.022;12.114;2022-11-12T13:04:48;8.00;99.90
18794;DHT22;29610;49.022;12.114;2022-11-12T13:08:03;8.00;99.90
18794;DHT22;29610;49.022;12.114;2022-11-12T13:10:56;8.00;99.90
18794;DHT22;29610;49.022;12.114;2022-11-12T13:13:45;8.00;99.90
18794;DHT22;29610;49.022;12.114;2022-11-12T13:16:58;8.00;99.90
18794;DHT22;29610;49.022;12.114;2022-11-12T13:23:47;7.90;99.90
18794;DHT22;29610;49.022;12.114;2022-11-12T13:26:56;8.10;99.90
18794;DHT22;29610;49.022;12.114;2022-11-12T13:29:46;8.00;99.90
18794;DHT22;29610;49.022;12.114;2022-11-12T13:32:36;8.10;99.90
18794;DHT22;29610;49.022;12.114;2022-11-12T13:35:30;8.10;99.90
18794;DHT22;29610;49.022;12.114;2022-11-12T13:38:26;8.00;99.90
18794;DHT22;29610;49.022;12.114;2022-11-12T13:41:17;8.00;99.90
18794;DHT22;29610;49.022;12.114;2022-11-12T13:44:33;8.00;99.90
18794;DHT22;29610;49.022;12.114;2022-11-12T13:47:36;8.00;99.90
18794;DHT22;29610;49.022;12.114;2022-11-12T13:50:30;8.00;99.90
18794;DHT22;29610;49.022;12.114;2022-11-12T13:53:50;8.10;99.90
18794;DHT22;29610;49.022;12.114;2022-11-12T13:56:44;8.00;99.90
18794;DHT22;29610;49.022;12.114;2022-11-12T13:59:32;8.00;99.90
18794;DHT22;29610;49.022;12.114;2022-11-12T14:02:25;8.40;99.90
18794;DHT22;29610;49.022;12.114;2022-11-12T14:05:19;7.80;99.90
18794;DHT22;29610;49.022;12.114;2022-11-12T14:08:35;7.80;99.90
18794;DHT22;29610;49.022;12.114;2022-11-12T14:11:55;7.70;99.90
18794;DHT22;29610;49.022;12.114;2022-11-12T14:15:07;7.90;99.90
18794;DHT22;29610;49.022;12.114;2022-11-12T14:18:16;7.80;99.90
18794;DHT22;29610;49.022;12.114;2022-11-12T14:21:16;7.70;99.90
18794;DHT22;29610;49.022;12.114;2022-11-12T14:24:10;7.80;99.90
18794;DHT22;29610;49.022;12.114;2022-11-12T14:27:21;7.70;99.90
18794;DHT22;29610;49.022;12.114;2022-11-12T14:30:22;7.60;99.90
18794;DHT22;29610;49.022;12.114;2022-11-12T14:33:18;6.90;99.90
18794;DHT22;29610;49.022;12.114;2022-11-12T14:36:16;7.50;99.90
18794;DHT22;29610;49.022;12.114;2022-11-12T14:39:10;7.40;99.90
18794;DHT22;29610;49.022;12.114;2022-11-12T14:41:59;7.30;99.90
18794;DHT22;29610;49.022;12.114;2022-11-12T14:44:46;7.30;99.90
18794;DHT22;29610;49.022;12.114;2022-11-12T14:47:35;7.30;99.90
18794;DHT22;29610;49.022;12.114;2022-11-12T14:50:28;7.30;99.90
18794;DHT22;29610;49.022;12.114;2022-11-12T14:53:33;7.10;99.90
18794;DHT22;29610;49.022;12.114;2022-11-12T14:56:29;6.90;99.90
18794;DHT22;29610;49.022;12.114;2022-11-12T14:59:25;6.90;99.90
18794;DHT22;29610;49.022;12.114;2022-11-12T15:02:16;7.00;99.90
18794;DHT22;29610;49.022;12.114;2022-11-12T15:05:31;6.80;99.90
18794;DHT22;29610;49.022;12.114;2022-11-12T15:08:32;6.50;99.90
18794;DHT22;29610;49.022;12.114;2022-11-12T15:11:30;6.50;99.90
18794;DHT22;29610;49.022;12.114;2022-11-12T15:14:25;6.20;99.90
18794;DHT22;29610;49.022;12.114;2022-11-12T15:17:29;6.20;99.90
18794;DHT22;29610;49.022;12.114;2022-11-12T15:20:18;6.40;99.90
18794;DHT22;29610;49.022;12.114;2022-11-12T15:23:15;6.30;99.90
18794;DHT22;29610;49.022;12.114;2022-11-12T15:26:13;6.50;99.90
18794;DHT22;29610;49.022;12.114;2022-11-12T15:29:20;6.20;99.90
18794;DHT22;29610;49.022;12.114;2022-11-12T15:32:35;6.00;99.90
18794;DHT22;29610;49.022;12.114;2022-11-12T15:35:33;6.00;99.90
18794;DHT22;29610;49.022;12.114;2022-11-12T15:38:25;5.90;99.90
18794;DHT22;29610;49.022;12.114;2022-11-12T15:41:24;6.00;99.90
18794;DHT22;29610;49.022;12.114;2022-11-12T15:44:14;5.90;99.90
18794;DHT22;29610;49.022;12.114;2022-11-12T15:47:01;5.80;99.90
18794;DHT22;29610;49.022;12.114;2022-11-12T15:49:50;5.70;99.90
18794;DHT22;29610;49.022;12.114;2022-11-12T15:52:39;5.60;99.90
18794;DHT22;29610;49.022;12.114;2022-11-12T15:55:26;5.60;99.90
18794;DHT22;29610;49.022;12.114;2022-11-12T15:58:18;5.50;99.90
18794;DHT22;29610;49.022;12.114;2022-11-12T16:01:16;5.50;99.90
18794;DHT22;29610;49.022;12.114;2022-11-12T16:04:04;5.40;99.90
18794;DHT22;29610;49.022;12.114;2022-11-12T16:06:51;5.40;99.90
18794;DHT22;29610;49.022;12.114;2022-11-12T16:09:38;5.50;99.90
18794;DHT22;29610;49.022;12.114;2022-11-12T16:12:26;5.50;99.90
18794;DHT22;29610;49.022;12.114;2022-11-12T16:15:16;5.50;99.90
18794;DHT22;29610;49.022;12.114;2022-11-12T16:18:07;5.50;99.90
18794;DHT22;29610;49.022;12.114;2022-11-12T16:20:56;5.50;99.90
18794;DHT22;29610;49.022;12.114;2022-11-12T16:23:43;5.50;99.90
18794;DHT22;29610;49.022;12.114;2022-11-12T16:26:31;5.50;99.90
18794;DHT22;29610;49.022;12.114;2022-11-12T16:29:19;5.60;99.90
18794;DHT22;29610;49.022;12.114;2022-11-12T16:32:11;5.60;99.90
18794;DHT22;29610;49.022;12.114;2022-11-12T16:35:00;5.60;99.90
18794;DHT22;29610;49.022;12.114;2022-11-12T16:37:47;5.60;99.90
18794;DHT22;29610;49.022;12.114;2022-11-12T16:40:35;5.60;99.90
18794;DHT22;29610;49.022;12.114;2022-11-12T16:43:23;5.60;99.90
18794;DHT22;29610;49.022;12.114;2022-11-12T16:46:22;5.60;99.90
18794;DHT22;29610;49.022;12.114;2022-11-12T16:49:14;5.70;99.90
18794;DHT22;29610;49.022;12.114;2022-11-12T16:52:01;5.80;99.90
18794;DHT22;29610;49.022;12.114;2022-11-12T16:54:49;5.80;99.90
18794;DHT22;29610;49.022;12.114;2022-11-12T16:57:36;6.40;99.90
18794;DHT22;29610;49.022;12.114;2022-11-12T17:00:24;5.90;99.90
18794;DHT22;29610;49.022;12.114;2022-11-12T17:03:12;5.80;99.90
18794;DHT22;29610;49.022;12.114;2022-11-12T17:06:01;6.40;99.90
18794;DHT22;29610;49.022;12.114;2022-11-12T17:08:52;5.80;99.90
18794;DHT22;29610;49.022;12.114;2022-11-12T17:11:40;5.80;99.90
18794;DHT22;29610;49.022;12.114;2022-11-12T17:14:29;5.80;99.90
18794;DHT22;29610;49.022;12.114;2022-11-12T17:17:17;5.80;99.90
18794;DHT22;29610;49.022;12.114;2022-11-12T17:20:06;5.80;99.90
18794;DHT22;29610;49.022;12.114;2022-11-12T17:22:58;5.90;99.90
18794;DHT22;29610;49.022;12.114;2022-11-12T17:25:45;5.90;99.90
18794;DHT22;29610;49.022;12.114;2022-11-12T17:28:33;6.00;99.90
18794;DHT22;29610;49.022;12.114;2022-11-12T17:31:21;6.00;99.90
18794;DHT22;29610;49.022;12.114;2022-11-12T17:34:09;6.00;99.90
18794;DHT22;29610;49.022;12.114;2022-11-12T17:36:56;6.00;99.90
18794;DHT22;29610;49.022;12.114;2022-11-12T17:39:51;6.00;99.90
18794;DHT22;29610;49.022;12.114;2022-11-12T17:42:38;6.10;99.90
18794;DHT22;29610;49.022;12.114;2022-11-12T17:45:25;6.00;99.90
18794;DHT22;29610;49.022;12.114;2022-11-12T17:48:12;6.40;99.90
18794;DHT22;29610;49.022;12.114;2022-11-12T17:51:05;5.90;99.90
18794;DHT22;29610;49.022;12.114;2022-11-12T17:53:56;5.70;99.90
18794;DHT22;29610;49.022;12.114;2022-11-12T17:56:45;5.80;99.90
18794;DHT22;29610;49.022;12.114;2022-11-12T17:59:35;5.90;99.90
18794;DHT22;29610;49.022;12.114;2022-11-12T18:02:25;5.80;99.90
18794;DHT22;29610;49.022;12.114;2022-11-12T18:05:12;5.80;99.90
18794;DHT22;29610;49.022;12.114;2022-11-12T18:07:59;5.70;99.90
18794;DHT22;29610;49.022;12.114;2022-11-12T18:10:46;5.60;99.90
18794;DHT22;29610;49.022;12.114;2022-11-12T18:13:39;5.60;99.90